YSSY/SYD METAR and TAF weather

Enter ICAO airport designator
Station Type Date Time Source
YSSY METAR 2022/09/28 18:00 UTC NOAA

YSSY 281800Z 22007KT 9999 FEW010 BKN078 13/12 Q1013


Station Type Date Time Source
YSSY Decoded METAR 2022/09/28 18:00 UTC NOAA

Sydney Airport, Australia (YSSY) 33-57S 151-11E 3M
Sep 28, 2022 - 02:00 PM EDT / 2022.09.28 1800 UTC
Wind: from the SW (220 degrees) at 8 MPH (7 KT):0
Visibility: greater than 7 mile(s):0
Sky conditions: mostly cloudy
Temperature: 55 F (13 C)
Dew Point: 53 F (12 C)
Relative Humidity: 93%
Pressure (altimeter): 29.91 in. Hg (1013 hPa)
ob: YSSY 281800Z 22007KT 9999 FEW010 BKN078 13/12 Q1013
cycle: 18

Station Type Date Time Source
YSSY TAF 2022/09/28 18:36 UTC NOAA

TAF YSSY 281707Z 2818/3000 26010KT 9999 -SHRA SCT010 BKN020
FM282100 24012KT 9999 -SHRA SCT010 BKN020
FM290000 19025KT 9999 -SHRA SCT014 SCT025
FM291400 24018KT 9999 -SHRA SCT010 BKN020 INTER 2818/2900 4000 SHRA BKN014
TEMPO 2900/2906 3000 SHRA BKN012 INTER 2906/2910 4000 SHRA BKN014 INTER 2918/3000 4000 SHRA BKN014 PROB30
TEMPO 2818/2902 VRB20G35KT 2000 TSRA BKN010 SCT030CB

Example: see airport list